Time;durP1;ratioP1;P1;durP2;ratioP2;P2;SDS_P1;SDS_P2;PMS_P1;PMS_P2;Temp;Humidity;BMP_temperature;BMP_pressure;BME280_temperature;BME280_humidity;BME280_pressure;Samples;Min_cycle;Max_cycle;Signal;HPM_P1;HPM_P2
2022/04/13 00:00:31;;;;;;;;;;;;;;;;;;5134680;27;1978;-68
2022/04/13 00:02:56;;;;;;;;;;;;;;;;;;5134924;27;804;-68
2022/04/13 00:05:21;;;;;;;;;;;;;;;;;;5134829;27;895;-68
2022/04/13 00:07:47;;;;;;;;;;;;;;;;;;5134515;27;922;-68
2022/04/13 00:10:12;;;;;;;;;;;;;;;;;;5116324;27;851;-68
2022/04/13 00:12:37;;;;;;;;;;;;;;;;;;5134811;27;1078;-68
2022/04/13 00:15:04;;;;;;;;;;;;;;;;;;5133641;27;839;-68
2022/04/13 00:17:30;;;;;;;;;;;;;;;;;;5134495;27;634;-68
2022/04/13 00:19:55;;;;;;;;;;;;;;;;;;5116126;27;1960;-68
2022/04/13 00:22:20;;;;;;;;;;;;;;;;;;5134674;27;911;-68
2022/04/13 00:24:46;;;;;;;;;;;;;;;;;;5115774;27;911;-68
2022/04/13 00:27:11;;;;;;;;;;;;;;;;;;5134404;27;1045;-68
2022/04/13 00:29:36;;;;;;;;;;;;;;;;;;5135031;27;828;-68
2022/04/13 00:32:03;;;;;;;;;;;;;;;;;;5134100;27;898;-67
2022/04/13 00:34:29;;;;;;;;;;;;;;;;;;5115959;27;1239;-68
2022/04/13 00:36:57;;;;;;;;;;;;;;;;;;5116068;27;1203;-68
2022/04/13 00:39:22;;;;;;;;;;;;;;;;;;5134290;27;1957;-68
2022/04/13 00:41:54;;;;;;;;;;;;;;;;;;5134390;27;994;-68
2022/04/13 00:44:20;;;;;;;;;;;;;;;;;;5115883;27;1242;-68
2022/04/13 00:46:45;;;;;;;;;;;;;;;;;;5135554;27;1154;-68
2022/04/13 00:49:10;;;;;;;;;;;;;;;;;;5116934;27;1507;-68
2022/04/13 00:51:35;;;;;;;;;;;;;;;;;;5135426;27;879;-68
2022/04/13 00:54:00;;;;;;;;;;;;;;;;;;5135626;27;887;-67
2022/04/13 00:56:27;;;;;;;;;;;;;;;;;;5116738;27;876;-67
2022/04/13 00:58:54;;;;;;;;;;;;;;;;;;5135994;27;1913;-67
2022/04/13 01:01:23;;;;;;;;;;;;;;;;;;5117096;27;1037;-67
2022/04/13 01:03:52;;;;;;;;;;;;;;;;;;5136335;27;868;-67
2022/04/13 01:06:20;;;;;;;;;;;;;;;;;;5118187;27;1413;-67
2022/04/13 01:08:48;;;;;;;;;;;;;;;;;;5137861;27;867;-68
2022/04/13 01:11:14;;;;;;;;;;;;;;;;;;5137723;27;994;-68
2022/04/13 01:13:39;;;;;;;;;;;;;;;;;;5136584;27;800;-68
2022/04/13 01:16:06;;;;;;;;;;;;;;;;;;5101074;27;1187;-68
2022/04/13 01:18:31;;;;;;;;;;;;;;;;;;5117634;27;1901;-67
2022/04/13 01:20:57;;;;;;;;;;;;;;;;;;5135361;27;884;-67
2022/04/13 01:23:23;;;;;;;;;;;;;;;;;;5116466;27;860;-68
2022/04/13 01:25:49;;;;;;;;;;;;;;;;;;5132638;27;852;-68
2022/04/13 01:28:14;;;;;;;;;;;;;;;;;;5115061;27;1455;-68
2022/04/13 01:30:39;;;;;;;;;;;;;;;;;;5133391;27;851;-68
2022/04/13 01:33:05;;;;;;;;;;;;;;;;;;5132888;27;1040;-67
2022/04/13 01:35:30;;;;;;;;;;;;;;;;;;5133629;27;820;-69
2022/04/13 01:37:56;;;;;;;;;;;;;;;;;;5133247;27;840;-68
2022/04/13 01:40:21;;;;;;;;;;;;;;;;;;5133369;27;1910;-68
2022/04/13 01:42:48;;;;;;;;;;;;;;;;;;5114523;27;848;-68
2022/04/13 01:45:19;;;;;;;;;;;;;;;;;;5114988;27;825;-68
2022/04/13 01:47:45;;;;;;;;;;;;;;;;;;5132858;27;1283;-68
2022/04/13 01:50:10;;;;;;;;;;;;;;;;;;5132709;27;915;-68
2022/04/13 01:52:36;;;;;;;;;;;;;;;;;;5132986;27;848;-68
2022/04/13 01:55:01;;;;;;;;;;;;;;;;;;5114358;27;1452;-68
2022/04/13 01:57:26;;;;;;;;;;;;;;;;;;5114495;27;908;-68
2022/04/13 01:59:52;;;;;;;;;;;;;;;;;;5133025;27;1970;-68
2022/04/13 02:02:17;;;;;;;;;;;;;;;;;;5132652;27;776;-68
2022/04/13 02:04:42;;;;;;;;;;;;;;;;;;5132755;27;894;-68
2022/04/13 02:07:08;;;;;;;;;;;;;;;;;;5114264;27;891;-68
2022/04/13 02:09:33;;;;;;;;;;;;;;;;;;5132864;27;966;-68
2022/04/13 02:11:58;;;;;;;;;;;;;;;;;;5113844;27;1493;-68
2022/04/13 02:14:23;;;;;;;;;;;;;;;;;;5113722;28;1254;-68
2022/04/13 02:16:48;;;;;;;;;;;;;;;;;;5132462;27;864;-68
2022/04/13 02:19:14;;;;;;;;;;;;;;;;;;5113926;27;1958;-68
2022/04/13 02:21:39;;;;;;;;;;;;;;;;;;5132187;27;907;-68
2022/04/13 02:24:05;;;;;;;;;;;;;;;;;;5113304;27;1236;-68
2022/04/13 02:26:30;;;;;;;;;;;;;;;;;;5132763;27;941;-68
2022/04/13 02:28:56;;;;;;;;;;;;;;;;;;5113716;27;1202;-68
2022/04/13 02:31:21;;;;;;;;;;;;;;;;;;5132258;27;958;-68
2022/04/13 02:33:47;;;;;;;;;;;;;;;;;;5131862;27;914;-67
2022/04/13 02:36:12;;;;;;;;;;;;;;;;;;5113125;27;1135;-67
2022/04/13 02:38:38;;;;;;;;;;;;;;;;;;5131883;27;1896;-67
2022/04/13 02:41:04;;;;;;;;;;;;;;;;;;5131854;27;962;-68
2022/04/13 02:43:29;;;;;;;;;;;;;;;;;;5131764;28;812;-67
2022/04/13 02:45:55;;;;;;;;;;;;;;;;;;5131852;28;758;-67
2022/04/13 02:48:20;;;;;;;;;;;;;;;;;;5132041;28;1083;-67
2022/04/13 02:50:45;;;;;;;;;;;;;;;;;;5131509;28;1022;-64
2022/04/13 02:53:11;;;;;;;;;;;;;;;;;;5131341;28;954;-64
2022/04/13 02:55:36;;;;;;;;;;;;;;;;;;5113132;28;807;-64
2022/04/13 02:58:01;;;;;;;;;;;;;;;;;;5131437;28;840;-63
2022/04/13 03:00:26;;;;;;;;;;;;;;;;;;5131400;28;1913;-64
2022/04/13 03:02:53;;;;;;;;;;;;;;;;;;5131738;28;1101;-64
2022/04/13 03:05:18;;;;;;;;;;;;;;;;;;5112740;28;1206;-64
2022/04/13 03:07:43;;;;;;;;;;;;;;;;;;5131589;28;895;-64
2022/04/13 03:10:08;;;;;;;;;;;;;;;;;;5130911;28;1066;-64
2022/04/13 03:12:34;;;;;;;;;;;;;;;;;;5131748;28;912;-64
2022/04/13 03:15:01;;;;;;;;;;;;;;;;;;5131146;28;890;-64
2022/04/13 03:17:27;;;;;;;;;;;;;;;;;;5131251;28;911;-64
2022/04/13 03:19:52;;;;;;;;;;;;;;;;;;5131528;28;1909;-67
2022/04/13 03:22:17;;;;;;;;;;;;;;;;;;5131359;28;777;-67
2022/04/13 03:24:42;;;;;;;;;;;;;;;;;;5131604;28;950;-68
2022/04/13 03:27:08;;;;;;;;;;;;;;;;;;5131369;28;861;-67
2022/04/13 03:29:33;;;;;;;;;;;;;;;;;;5131660;28;737;-67
2022/04/13 03:31:59;;;;;;;;;;;;;;;;;;5131383;28;899;-67
2022/04/13 03:34:24;;;;;;;;;;;;;;;;;;5112831;28;1680;-67
2022/04/13 03:36:50;;;;;;;;;;;;;;;;;;5113147;28;785;-67
2022/04/13 03:39:16;;;;;;;;;;;;;;;;;;5131373;28;1893;-67
2022/04/13 03:41:42;;;;;;;;;;;;;;;;;;5131708;28;871;-67
2022/04/13 03:44:07;;;;;;;;;;;;;;;;;;5131088;28;836;-67
2022/04/13 03:46:33;;;;;;;;;;;;;;;;;;5113020;28;1203;-68
2022/04/13 03:48:58;;;;;;;;;;;;;;;;;;5132856;27;899;-68
2022/04/13 03:51:23;;;;;;;;;;;;;;;;;;5136098;27;824;-68
2022/04/13 03:53:49;;;;;;;;;;;;;;;;;;5134957;27;777;-68
2022/04/13 03:56:14;;;;;;;;;;;;;;;;;;5135393;27;899;-68
2022/04/13 03:58:42;;;;;;;;;;;;;;;;;;5135740;27;1972;-68
2022/04/13 04:01:08;;;;;;;;;;;;;;;;;;5134967;27;914;-68
2022/04/13 04:03:34;;;;;;;;;;;;;;;;;;5135798;27;820;-68
2022/04/13 04:05:59;;;;;;;;;;;;;;;;;;5135173;27;997;-68
2022/04/13 04:08:26;;;;;;;;;;;;;;;;;;5135336;27;769;-68
2022/04/13 04:10:52;;;;;;;;;;;;;;;;;;5117091;27;859;-68
2022/04/13 04:13:17;;;;;;;;;;;;;;;;;;5134698;27;951;-68
2022/04/13 04:15:43;;;;;;;;;;;;;;;;;;5135107;27;820;-68
2022/04/13 04:18:08;;;;;;;;;;;;;;;;;;5115905;27;1206;-69
2022/04/13 04:20:33;;;;;;;;;;;;;;;;;;5134716;27;1910;-67
2022/04/13 04:22:58;;;;;;;;;;;;;;;;;;5134567;27;749;-68
2022/04/13 04:25:23;;;;;;;;;;;;;;;;;;5116090;27;931;-69
2022/04/13 04:27:49;;;;;;;;;;;;;;;;;;5134673;27;994;-68
2022/04/13 04:30:14;;;;;;;;;;;;;;;;;;5134118;27;900;-68
2022/04/13 04:32:39;;;;;;;;;;;;;;;;;;5115859;27;1002;-68
2022/04/13 04:35:06;;;;;;;;;;;;;;;;;;5134168;27;880;-68
2022/04/13 04:37:31;;;;;;;;;;;;;;;;;;5134429;27;887;-68
2022/04/13 04:39:57;;;;;;;;;;;;;;;;;;5134238;27;1905;-68
2022/04/13 04:42:22;;;;;;;;;;;;;;;;;;5098789;27;1386;-69
2022/04/13 04:44:47;;;;;;;;;;;;;;;;;;5133801;27;828;-69
2022/04/13 04:47:13;;;;;;;;;;;;;;;;;;5115086;27;1211;-68
2022/04/13 04:49:38;;;;;;;;;;;;;;;;;;5145979;27;1131;-68
2022/04/13 04:52:03;;;;;;;;;;;;;;;;;;5154468;27;808;-68
2022/04/13 04:54:29;;;;;;;;;;;;;;;;;;5154733;27;946;-69
2022/04/13 04:56:54;;;;;;;;;;;;;;;;;;5135810;27;919;-68
2022/04/13 04:59:20;;;;;;;;;;;;;;;;;;5135099;27;1905;-68
2022/04/13 05:01:45;;;;;;;;;;;;;;;;;;5154560;27;906;-68
2022/04/13 05:04:10;;;;;;;;;;;;;;;;;;5153860;27;1177;-68
2022/04/13 05:06:36;;;;;;;;;;;;;;;;;;5116918;27;1210;-68
2022/04/13 05:09:01;;;;;;;;;;;;;;;;;;5135370;27;974;-68
2022/04/13 05:11:26;;;;;;;;;;;;;;;;;;5154106;27;930;-68
2022/04/13 05:13:51;;;;;;;;;;;;;;;;;;5154658;27;796;-67
2022/04/13 05:16:17;;;;;;;;;;;;;;;;;;5135125;27;960;-67
2022/04/13 05:18:45;;;;;;;;;;;;;;;;;;5154185;27;1893;-67
2022/04/13 05:21:10;;;;;;;;;;;;;;;;;;5153565;27;804;-67
2022/04/13 05:23:36;;;;;;;;;;;;;;;;;;5135707;27;985;-68
2022/04/13 05:26:01;;;;;;;;;;;;;;;;;;5135737;27;808;-67
2022/04/13 05:28:26;;;;;;;;;;;;;;;;;;5117782;27;889;-68
2022/04/13 05:30:52;;;;;;;;;;;;;;;;;;5135199;27;1221;-68
2022/04/13 05:33:17;;;;;;;;;;;;;;;;;;5151941;27;1018;-68
2022/04/13 05:35:45;;;;;;;;;;;;;;;;;;5134080;27;1251;-68
2022/04/13 05:38:10;;;;;;;;;;;;;;;;;;5154098;27;888;-68
2022/04/13 05:40:35;;;;;;;;;;;;;;;;;;5154771;27;1893;-67
2022/04/13 05:43:00;;;;;;;;;;;;;;;;;;5154139;27;851;-68
2022/04/13 05:45:26;;;;;;;;;;;;;;;;;;5153753;27;875;-68
2022/04/13 05:47:51;;;;;;;;;;;;;;;;;;5135412;27;1904;-68
2022/04/13 05:50:16;;;;;;;;;;;;;;;;;;5153766;27;1029;-68
2022/04/13 05:52:42;;;;;;;;;;;;;;;;;;5154121;27;1009;-68
2022/04/13 05:55:08;;;;;;;;;;;;;;;;;;5154122;27;906;-68
2022/04/13 05:57:33;;;;;;;;;;;;;;;;;;5154100;27;1079;-68
2022/04/13 05:59:59;;;;;;;;;;;;;;;;;;5153836;27;1901;-68
2022/04/13 06:02:24;;;;;;;;;;;;;;;;;;5153687;27;835;-68
2022/04/13 06:04:49;;;;;;;;;;;;;;;;;;5135315;27;1324;-68
2022/04/13 06:07:15;;;;;;;;;;;;;;;;;;5154058;27;1046;-68
2022/04/13 06:09:40;;;;;;;;;;;;;;;;;;5135108;27;1277;-68
2022/04/13 06:12:06;;;;;;;;;;;;;;;;;;5153230;27;918;-68
2022/04/13 06:14:31;;;;;;;;;;;;;;;;;;5134676;27;1323;-68
2022/04/13 06:16:56;;;;;;;;;;;;;;;;;;5153203;27;1174;-67
2022/04/13 06:19:22;;;;;;;;;;;;;;;;;;5153358;27;1902;-67
2022/04/13 06:21:47;;;;;;;;;;;;;;;;;;5134527;27;1226;-68
2022/04/13 06:24:12;;;;;;;;;;;;;;;;;;5153038;27;1047;-68
2022/04/13 06:26:38;;;;;;;;;;;;;;;;;;5134294;27;1542;-68
2022/04/13 06:29:03;;;;;;;;;;;;;;;;;;5153295;27;793;-68
2022/04/13 06:31:29;;;;;;;;;;;;;;;;;;5153108;27;919;-67
2022/04/13 06:33:54;;;;;;;;;;;;;;;;;;5154211;27;914;-68
2022/04/13 06:36:20;;;;;;;;;;;;;;;;;;5134574;27;852;-67
2022/04/13 06:38:45;;;;;;;;;;;;;;;;;;5153267;27;1960;-67
2022/04/13 06:41:11;;;;;;;;;;;;;;;;;;5153285;27;843;-67
2022/04/13 06:43:37;;;;;;;;;;;;;;;;;;5117210;27;1395;-67
2022/04/13 06:46:02;;;;;;;;;;;;;;;;;;5134003;27;1325;-68
2022/04/13 06:48:28;;;;;;;;;;;;;;;;;;5152359;27;1441;-67
2022/04/13 06:50:53;;;;;;;;;;;;;;;;;;5134891;27;840;-68
2022/04/13 06:53:18;;;;;;;;;;;;;;;;;;5152762;27;780;-68
2022/04/13 06:55:50;;;;;;;;;;;;;;;;;;5153393;27;836;-68
2022/04/13 06:58:16;;;;;;;;;;;;;;;;;;5153173;27;966;-68
2022/04/13 07:00:41;;;;;;;;;;;;;;;;;;5152992;27;1990;-68
2022/04/13 07:03:06;;;;;;;;;;;;;;;;;;5153259;27;927;-67
2022/04/13 07:05:32;;;;;;;;;;;;;;;;;;5152724;27;828;-67
2022/04/13 07:07:58;;;;;;;;;;;;;;;;;;5134150;27;879;-67
2022/04/13 07:10:23;;;;;;;;;;;;;;;;;;5152537;27;923;-67
2022/04/13 07:12:49;;;;;;;;;;;;;;;;;;5153308;27;855;-67
2022/04/13 07:15:17;;;;;;;;;;;;;;;;;;5152944;27;848;-67
2022/04/13 07:17:42;;;;;;;;;;;;;;;;;;5152933;27;801;-68
2022/04/13 07:20:08;;;;;;;;;;;;;;;;;;5152278;27;1907;-67
2022/04/13 07:22:41;;;;;;;;;;;;;;;;;;5133823;27;1416;-67
2022/04/13 07:25:06;;;;;;;;;;;;;;;;;;5137455;27;1290;-67
2022/04/13 07:27:32;;;;;;;;;;;;;;;;;;5138337;27;994;-67
2022/04/13 07:29:57;;;;;;;;;;;;;;;;;;5157527;27;1002;-67
2022/04/13 07:32:22;;;;;;;;;;;;;;;;;;5138473;27;899;-67
2022/04/13 07:34:47;;;;;;;;;;;;;;;;;;5157276;27;870;-67
2022/04/13 07:37:13;;;;;;;;;;;;;;;;;;5157273;27;965;-67
2022/04/13 07:39:38;;;;;;;;;;;;;;;;;;5138329;27;1894;-67
2022/04/13 07:42:03;;;;;;;;;;;;;;;;;;5156921;27;757;-68
2022/04/13 07:44:29;;;;;;;;;;;;;;;;;;5156794;27;993;-68
2022/04/13 07:46:54;;;;;;;;;;;;;;;;;;5138010;27;1150;-67
2022/04/13 07:49:21;;;;;;;;;;;;;;;;;;5156568;27;840;-67
2022/04/13 07:51:47;;;;;;;;;;;;;;;;;;5157288;27;866;-67
2022/04/13 07:54:12;;;;;;;;;;;;;;;;;;5138071;27;895;-67
2022/04/13 07:56:37;;;;;;;;;;;;;;;;;;5155741;27;828;-67
2022/04/13 07:59:03;;;;;;;;;;;;;;;;;;5156321;27;1979;-67
2022/04/13 08:01:28;;;;;;;;;;;;;;;;;;5156353;27;899;-67
2022/04/13 08:03:53;;;;;;;;;;;;;;;;;;5120368;27;1179;-67
2022/04/13 08:06:19;;;;;;;;;;;;;;;;;;5136941;27;750;-68
2022/04/13 08:08:44;;;;;;;;;;;;;;;;;;5136574;27;1193;-68
2022/04/13 08:11:09;;;;;;;;;;;;;;;;;;5155953;27;824;-68
2022/04/13 08:13:34;;;;;;;;;;;;;;;;;;5136405;27;1249;-68
2022/04/13 08:16:00;;;;;;;;;;;;;;;;;;5155742;27;1216;-68
2022/04/13 08:18:25;;;;;;;;;;;;;;;;;;5154547;27;1049;-68
2022/04/13 08:20:50;;;;;;;;;;;;;;;;;;5136311;27;1905;-68
2022/04/13 08:23:16;;;;;;;;;;;;;;;;;;5155260;27;930;-67
2022/04/13 08:25:41;;;;;;;;;;;;;;;;;;5136646;27;954;-68
2022/04/13 08:28:06;;;;;;;;;;;;;;;;;;5155260;27;906;-68
2022/04/13 08:30:32;;;;;;;;;;;;;;;;;;5155334;27;848;-68
2022/04/13 08:32:57;;;;;;;;;;;;;;;;;;5155356;27;939;-68
2022/04/13 08:35:22;;;;;;;;;;;;;;;;;;5135942;27;836;-68
2022/04/13 08:37:48;;;;;;;;;;;;;;;;;;5136698;27;820;-68
2022/04/13 08:40:14;;;;;;;;;;;;;;;;;;5154935;27;1909;-68
2022/04/13 08:42:46;;;;;;;;;;;;;;;;;;5154575;27;804;-68
2022/04/13 08:45:18;;;;;;;;;;;;;;;;;;5136171;27;1372;-68
2022/04/13 08:47:45;;;;;;;;;;;;;;;;;;5154884;27;1257;-68
2022/04/13 08:50:12;;;;;;;;;;;;;;;;;;5154817;27;852;-68
2022/04/13 08:52:38;;;;;;;;;;;;;;;;;;5135503;27;1245;-68
2022/04/13 08:55:05;;;;;;;;;;;;;;;;;;5154975;27;760;-68
2022/04/13 08:57:35;;;;;;;;;;;;;;;;;;5154068;27;903;-68
2022/04/13 09:00:13;;;;;;;;;;;;;;;;;;5135676;27;1985;-67
2022/04/13 09:02:42;;;;;;;;;;;;;;;;;;5154549;27;762;-67
2022/04/13 09:05:12;;;;;;;;;;;;;;;;;;5154751;27;900;-66
2022/04/13 09:07:39;;;;;;;;;;;;;;;;;;5154295;27;859;-67
2022/04/13 09:10:07;;;;;;;;;;;;;;;;;;5155117;27;816;-67
2022/04/13 09:12:35;;;;;;;;;;;;;;;;;;5154426;27;856;-67
2022/04/13 09:15:01;;;;;;;;;;;;;;;;;;5154974;27;852;-66
2022/04/13 09:17:30;;;;;;;;;;;;;;;;;;5154510;27;859;-67
2022/04/13 09:19:58;;;;;;;;;;;;;;;;;;5153092;27;1905;-67
2022/04/13 09:22:24;;;;;;;;;;;;;;;;;;5153933;27;836;-67
2022/04/13 09:24:53;;;;;;;;;;;;;;;;;;5135985;27;903;-67
2022/04/13 09:27:20;;;;;;;;;;;;;;;;;;5154723;27;851;-66
2022/04/13 09:29:45;;;;;;;;;;;;;;;;;;5135517;27;855;-67
2022/04/13 09:32:11;;;;;;;;;;;;;;;;;;5155173;27;878;-67
2022/04/13 09:34:36;;;;;;;;;;;;;;;;;;5154262;27;970;-66
2022/04/13 09:37:01;;;;;;;;;;;;;;;;;;5154497;27;823;-67
2022/04/13 09:39:27;;;;;;;;;;;;;;;;;;5149260;27;1889;-68
2022/04/13 09:41:52;;;;;;;;;;;;;;;;;;5113569;28;867;-68
2022/04/13 09:44:19;;;;;;;;;;;;;;;;;;5093430;28;1020;-69
2022/04/13 09:46:45;;;;;;;;;;;;;;;;;;5112088;28;1084;-68
2022/04/13 09:49:11;;;;;;;;;;;;;;;;;;5094578;28;1743;-68
2022/04/13 09:51:40;;;;;;;;;;;;;;;;;;5112397;28;760;-68
2022/04/13 09:54:08;;;;;;;;;;;;;;;;;;5112511;28;896;-68
2022/04/13 09:56:38;;;;;;;;;;;;;;;;;;5112412;28;867;-68
2022/04/13 09:59:04;;;;;;;;;;;;;;;;;;5112745;28;1909;-68
2022/04/13 10:01:31;;;;;;;;;;;;;;;;;;5112352;28;895;-68
2022/04/13 10:03:56;;;;;;;;;;;;;;;;;;5093993;28;1203;-68
2022/04/13 10:06:28;;;;;;;;;;;;;;;;;;5112153;28;864;-68
2022/04/13 10:09:00;;;;;;;;;;;;;;;;;;5093674;28;1330;-68
2022/04/13 10:11:26;;;;;;;;;;;;;;;;;;5112274;28;805;-68
2022/04/13 10:13:51;;;;;;;;;;;;;;;;;;5112536;28;809;-68
2022/04/13 10:16:16;;;;;;;;;;;;;;;;;;5112202;28;852;-68
2022/04/13 10:18:52;;;;;;;;;;;;;;;;;;5111802;28;958;-68
2022/04/13 10:21:52;;;;;;;;;;;;;;;;;;5111565;28;832;-68
2022/04/13 10:24:21;;;;;;;;;;;;;;;;;;5068645;28;1478;-68
2022/04/13 10:27:06;;;;;;;;;;;;;;;;;;5103579;28;1017;-68
2022/04/13 10:29:32;;;;;;;;;;;;;;;;;;5112035;28;843;-68
2022/04/13 10:32:03;;;;;;;;;;;;;;;;;;5093582;28;1223;-68
2022/04/13 10:34:29;;;;;;;;;;;;;;;;;;5111327;28;996;-68
2022/04/13 10:36:54;;;;;;;;;;;;;;;;;;5111545;28;804;-68
2022/04/13 10:39:20;;;;;;;;;;;;;;;;;;5092985;28;1963;-68
2022/04/13 10:41:45;;;;;;;;;;;;;;;;;;5092387;28;1504;-68
2022/04/13 10:44:10;;;;;;;;;;;;;;;;;;5093574;28;1003;-68
2022/04/13 10:46:37;;;;;;;;;;;;;;;;;;5111942;28;1067;-68
2022/04/13 10:49:07;;;;;;;;;;;;;;;;;;5076212;28;1248;-68
2022/04/13 10:51:34;;;;;;;;;;;;;;;;;;5111857;28;836;-68
2022/04/13 10:54:01;;;;;;;;;;;;;;;;;;5112156;28;879;-68
2022/04/13 10:56:27;;;;;;;;;;;;;;;;;;5112085;28;1081;-68
2022/04/13 10:58:56;;;;;;;;;;;;;;;;;;5114849;28;1965;-68
2022/04/13 11:01:23;;;;;;;;;;;;;;;;;;5116440;28;895;-68
2022/04/13 11:03:48;;;;;;;;;;;;;;;;;;5115752;28;884;-68
2022/04/13 11:06:13;;;;;;;;;;;;;;;;;;5096400;28;841;-68
2022/04/13 11:08:48;;;;;;;;;;;;;;;;;;5115898;28;992;-67
2022/04/13 11:11:18;;;;;;;;;;;;;;;;;;5097585;28;1615;-67
2022/04/13 11:13:45;;;;;;;;;;;;;;;;;;5097795;28;1189;-67
2022/04/13 11:16:17;;;;;;;;;;;;;;;;;;5097656;28;1406;-67
2022/04/13 11:19:03;;;;;;;;;;;;;;;;;;5116147;28;749;-67
2022/04/13 11:21:29;;;;;;;;;;;;;;;;;;5115064;28;1163;-68
2022/04/13 11:23:54;;;;;;;;;;;;;;;;;;5115305;28;871;-67
2022/04/13 11:26:26;;;;;;;;;;;;;;;;;;5097021;28;921;-68
2022/04/13 11:29:10;;;;;;;;;;;;;;;;;;5096950;28;875;-68
2022/04/13 11:31:54;;;;;;;;;;;;;;;;;;5115194;28;899;-68
2022/04/13 11:34:27;;;;;;;;;;;;;;;;;;5097029;28;1234;-68
2022/04/13 11:36:52;;;;;;;;;;;;;;;;;;5097154;28;872;-68
2022/04/13 11:39:37;;;;;;;;;;;;;;;;;;5096330;28;1921;-68
2022/04/13 11:42:03;;;;;;;;;;;;;;;;;;5114497;28;1338;-68
2022/04/13 11:44:45;;;;;;;;;;;;;;;;;;5114721;28;1029;-68
2022/04/13 11:47:14;;;;;;;;;;;;;;;;;;5114684;28;1074;-68
2022/04/13 11:49:53;;;;;;;;;;;;;;;;;;5079258;28;840;-68
2022/04/13 11:52:38;;;;;;;;;;;;;;;;;;5114505;28;824;-68
2022/04/13 11:55:13;;;;;;;;;;;;;;;;;;5114760;28;926;-68
2022/04/13 11:58:12;;;;;;;;;;;;;;;;;;5114709;28;895;-68
2022/04/13 12:00:56;;;;;;;;;;;;;;;;;;5091441;28;1974;-68
2022/04/13 12:03:24;;;;;;;;;;;;;;;;;;5114479;28;879;-68
2022/04/13 12:05:51;;;;;;;;;;;;;;;;;;5096709;28;1210;-68
2022/04/13 12:08:21;;;;;;;;;;;;;;;;;;5079333;28;1449;-68
2022/04/13 12:10:46;;;;;;;;;;;;;;;;;;5095564;28;1456;-68
2022/04/13 12:13:11;;;;;;;;;;;;;;;;;;5114831;28;820;-68
2022/04/13 12:15:44;;;;;;;;;;;;;;;;;;5114350;28;879;-68
2022/04/13 12:18:10;;;;;;;;;;;;;;;;;;5095926;28;1150;-68
2022/04/13 12:20:36;;;;;;;;;;;;;;;;;;5114127;28;1961;-68
2022/04/13 12:23:17;;;;;;;;;;;;;;;;;;5095832;28;1100;-68
2022/04/13 12:25:44;;;;;;;;;;;;;;;;;;5114430;28;1006;-68
2022/04/13 12:28:09;;;;;;;;;;;;;;;;;;5095552;28;1270;-68
2022/04/13 12:30:34;;;;;;;;;;;;;;;;;;5095880;28;985;-68
2022/04/13 12:33:11;;;;;;;;;;;;;;;;;;5114357;28;1039;-68
2022/04/13 12:35:56;;;;;;;;;;;;;;;;;;5095728;28;1716;-68
2022/04/13 12:38:37;;;;;;;;;;;;;;;;;;5114582;28;840;-68
2022/04/13 12:41:07;;;;;;;;;;;;;;;;;;5114357;28;1898;-68
2022/04/13 12:43:33;;;;;;;;;;;;;;;;;;5114233;28;915;-68
2022/04/13 12:46:06;;;;;;;;;;;;;;;;;;5113742;28;876;-68
2022/04/13 12:48:32;;;;;;;;;;;;;;;;;;5113951;28;1098;-68
2022/04/13 12:50:58;;;;;;;;;;;;;;;;;;5113498;28;880;-68
2022/04/13 12:53:23;;;;;;;;;;;;;;;;;;5113468;28;809;-68
2022/04/13 12:55:56;;;;;;;;;;;;;;;;;;5095304;28;1124;-68
2022/04/13 12:58:21;;;;;;;;;;;;;;;;;;5113693;28;856;-69
2022/04/13 13:00:50;;;;;;;;;;;;;;;;;;5113312;28;1975;-68
2022/04/13 13:03:16;;;;;;;;;;;;;;;;;;5113254;28;868;-68
2022/04/13 13:05:42;;;;;;;;;;;;;;;;;;5113475;28;891;-68
2022/04/13 13:08:07;;;;;;;;;;;;;;;;;;5113544;28;864;-68
2022/04/13 13:10:33;;;;;;;;;;;;;;;;;;5095159;28;1066;-68
2022/04/13 13:13:08;;;;;;;;;;;;;;;;;;5095798;28;883;-68
2022/04/13 13:15:37;;;;;;;;;;;;;;;;;;5113668;28;922;-68
2022/04/13 13:18:06;;;;;;;;;;;;;;;;;;5113474;28;828;-68
2022/04/13 13:20:32;;;;;;;;;;;;;;;;;;5113294;28;1961;-68
2022/04/13 13:22:57;;;;;;;;;;;;;;;;;;5114037;28;891;-68
2022/04/13 13:25:23;;;;;;;;;;;;;;;;;;5113789;28;801;-68
2022/04/13 13:27:50;;;;;;;;;;;;;;;;;;5095219;28;852;-68
2022/04/13 13:30:17;;;;;;;;;;;;;;;;;;5113369;28;816;-68
2022/04/13 13:32:50;;;;;;;;;;;;;;;;;;5113097;28;922;-68
2022/04/13 13:35:17;;;;;;;;;;;;;;;;;;5113060;28;880;-68
2022/04/13 13:37:43;;;;;;;;;;;;;;;;;;5113719;28;903;-68
2022/04/13 13:40:27;;;;;;;;;;;;;;;;;;5094554;28;1969;-69
2022/04/13 13:42:52;;;;;;;;;;;;;;;;;;5113424;28;836;-68
2022/04/13 13:45:18;;;;;;;;;;;;;;;;;;5113003;28;816;-68
2022/04/13 13:47:44;;;;;;;;;;;;;;;;;;5090338;28;1274;-68
2022/04/13 13:50:10;;;;;;;;;;;;;;;;;;5092049;28;895;-69
2022/04/13 13:52:35;;;;;;;;;;;;;;;;;;5092124;28;837;-69
2022/04/13 13:55:00;;;;;;;;;;;;;;;;;;5092486;28;888;-68
2022/04/13 13:57:26;;;;;;;;;;;;;;;;;;5091772;28;859;-68
2022/04/13 13:59:51;;;;;;;;;;;;;;;;;;5090750;28;1917;-68
2022/04/13 14:02:16;;;;;;;;;;;;;;;;;;5091371;28;1042;-68
2022/04/13 14:04:41;;;;;;;;;;;;;;;;;;5090474;28;1030;-68
2022/04/13 14:07:06;;;;;;;;;;;;;;;;;;5090600;28;1011;-68
2022/04/13 14:09:32;;;;;;;;;;;;;;;;;;5091994;28;900;-68
2022/04/13 14:11:58;;;;;;;;;;;;;;;;;;5091894;28;999;-68
2022/04/13 14:14:23;;;;;;;;;;;;;;;;;;5091974;28;820;-68
2022/04/13 14:16:50;;;;;;;;;;;;;;;;;;5091880;28;852;-68
2022/04/13 14:19:15;;;;;;;;;;;;;;;;;;5091602;28;1945;-67
2022/04/13 14:21:40;;;;;;;;;;;;;;;;;;5091634;28;852;-68
2022/04/13 14:24:06;;;;;;;;;;;;;;;;;;5091921;28;1007;-67
2022/04/13 14:26:31;;;;;;;;;;;;;;;;;;5089905;28;786;-67
2022/04/13 14:28:57;;;;;;;;;;;;;;;;;;5091395;28;932;-67
2022/04/13 14:31:22;;;;;;;;;;;;;;;;;;5091254;28;908;-67
2022/04/13 14:33:47;;;;;;;;;;;;;;;;;;5091139;28;1102;-67
2022/04/13 14:36:12;;;;;;;;;;;;;;;;;;5089575;28;1019;-67
2022/04/13 14:38:38;;;;;;;;;;;;;;;;;;5091737;28;880;-67
2022/04/13 14:41:03;;;;;;;;;;;;;;;;;;5108236;28;1896;-67
2022/04/13 14:43:28;;;;;;;;;;;;;;;;;;5128451;27;1229;-67
2022/04/13 14:45:55;;;;;;;;;;;;;;;;;;5132267;27;1002;-67
2022/04/13 14:48:20;;;;;;;;;;;;;;;;;;5130820;28;1336;-67
2022/04/13 14:50:46;;;;;;;;;;;;;;;;;;5132643;27;864;-67
2022/04/13 14:53:12;;;;;;;;;;;;;;;;;;5132348;27;825;-67
2022/04/13 14:55:37;;;;;;;;;;;;;;;;;;5130902;28;1272;-67
2022/04/13 14:58:02;;;;;;;;;;;;;;;;;;5132006;27;964;-67
2022/04/13 15:00:27;;;;;;;;;;;;;;;;;;5131934;27;1975;-67
2022/04/13 15:02:53;;;;;;;;;;;;;;;;;;5132398;27;1061;-66
2022/04/13 15:05:18;;;;;;;;;;;;;;;;;;5132282;27;903;-67
2022/04/13 15:07:44;;;;;;;;;;;;;;;;;;5131070;28;898;-67
2022/04/13 15:10:09;;;;;;;;;;;;;;;;;;5132457;28;642;-67
2022/04/13 15:12:34;;;;;;;;;;;;;;;;;;5132683;27;820;-67
2022/04/13 15:15:00;;;;;;;;;;;;;;;;;;5132540;27;922;-67
2022/04/13 15:17:25;;;;;;;;;;;;;;;;;;5132144;27;840;-67
2022/04/13 15:19:50;;;;;;;;;;;;;;;;;;5132763;27;1897;-67
2022/04/13 15:22:16;;;;;;;;;;;;;;;;;;5131392;28;992;-67
2022/04/13 15:24:41;;;;;;;;;;;;;;;;;;5131510;28;1037;-67
2022/04/13 15:27:06;;;;;;;;;;;;;;;;;;5133433;27;1219;-67
2022/04/13 15:29:31;;;;;;;;;;;;;;;;;;5131626;28;820;-67
2022/04/13 15:31:57;;;;;;;;;;;;;;;;;;5131125;28;904;-67
2022/04/13 15:34:22;;;;;;;;;;;;;;;;;;5132865;27;938;-67
2022/04/13 15:36:48;;;;;;;;;;;;;;;;;;5132609;27;1077;-67
2022/04/13 15:39:14;;;;;;;;;;;;;;;;;;5113113;28;1897;-67
2022/04/13 15:41:40;;;;;;;;;;;;;;;;;;5131105;28;958;-67
2022/04/13 15:44:05;;;;;;;;;;;;;;;;;;5131221;27;844;-67
2022/04/13 15:46:31;;;;;;;;;;;;;;;;;;5135448;27;934;-68
2022/04/13 15:48:56;;;;;;;;;;;;;;;;;;5152614;27;1384;-67
2022/04/13 15:51:21;;;;;;;;;;;;;;;;;;5156311;27;1195;-68
2022/04/13 15:53:47;;;;;;;;;;;;;;;;;;5156486;27;923;-67
2022/04/13 15:56:12;;;;;;;;;;;;;;;;;;5156676;27;942;-67
2022/04/13 15:58:37;;;;;;;;;;;;;;;;;;5137303;27;1048;-67
2022/04/13 16:01:03;;;;;;;;;;;;;;;;;;5138423;27;1918;-67
2022/04/13 16:03:29;;;;;;;;;;;;;;;;;;5156160;27;836;-67
2022/04/13 16:05:54;;;;;;;;;;;;;;;;;;5121023;27;1400;-67
2022/04/13 16:08:20;;;;;;;;;;;;;;;;;;5137944;27;1010;-67
2022/04/13 16:10:45;;;;;;;;;;;;;;;;;;5156517;27;919;-68
2022/04/13 16:13:12;;;;;;;;;;;;;;;;;;5137280;27;828;-68
2022/04/13 16:15:37;;;;;;;;;;;;;;;;;;5155872;27;1081;-67
2022/04/13 16:18:03;;;;;;;;;;;;;;;;;;5137513;27;1226;-67
2022/04/13 16:20:29;;;;;;;;;;;;;;;;;;5155225;27;1967;-68
2022/04/13 16:22:54;;;;;;;;;;;;;;;;;;5137236;27;1551;-68
2022/04/13 16:25:23;;;;;;;;;;;;;;;;;;5156177;27;919;-67
2022/04/13 16:27:49;;;;;;;;;;;;;;;;;;5155951;27;813;-68
2022/04/13 16:30:14;;;;;;;;;;;;;;;;;;5155523;27;848;-68
2022/04/13 16:32:39;;;;;;;;;;;;;;;;;;5154911;27;1021;-67
2022/04/13 16:35:05;;;;;;;;;;;;;;;;;;5155649;27;848;-67
2022/04/13 16:37:30;;;;;;;;;;;;;;;;;;5154357;27;859;-67
2022/04/13 16:39:56;;;;;;;;;;;;;;;;;;5155434;27;1905;-67
2022/04/13 16:42:23;;;;;;;;;;;;;;;;;;5155709;27;975;-67
2022/04/13 16:44:49;;;;;;;;;;;;;;;;;;5155002;27;995;-67
2022/04/13 16:47:14;;;;;;;;;;;;;;;;;;5155929;27;750;-67
2022/04/13 16:49:40;;;;;;;;;;;;;;;;;;5136589;27;1408;-67
2022/04/13 16:52:06;;;;;;;;;;;;;;;;;;5137324;27;1290;-67
2022/04/13 16:54:31;;;;;;;;;;;;;;;;;;5155710;27;1001;-67
2022/04/13 16:56:56;;;;;;;;;;;;;;;;;;5137225;27;1297;-67
2022/04/13 16:59:22;;;;;;;;;;;;;;;;;;5155770;27;2433;-67
2022/04/13 17:01:47;;;;;;;;;;;;;;;;;;5155514;27;998;-68
2022/04/13 17:04:13;;;;;;;;;;;;;;;;;;5137745;27;836;-68
2022/04/13 17:06:39;;;;;;;;;;;;;;;;;;5155692;27;863;-68
2022/04/13 17:09:05;;;;;;;;;;;;;;;;;;5156169;27;961;-67